Crotone, Italy

9:17 PM CEST on April 25, 2015 (GMT +0200)
Belcastro Marina (CZ) | | Change Station
CLOSE
Current Station
Personal Weather Station
Location: Calabria, Nirvana Club Village
Elevation: 3 ft
Nearby Weather Stations

Elev 3 ft 38.93 °N, 16.89 °E | Updated 9 seconds ago

Clear
Clear
59.3 °F
Feels Like 59.3 °F
N
2.0
Wind Variable Wind from WNW
Gusts 6.0 mph

Today
High -- | Low -- °F
--% Chance of Precip.
Yesterday
High -- | Low -- °F
Precip. -- in
6:01 AM 7:38 PM
Waxing Crescent, 48% visible
Pressure 30.04 in
Visibility -9999.0 miles
Clouds
Dew Point 56 °F
Humidity 88%
Rainfall 0.00 in
Snow Depth Not available.
UV Not available.
Pollen Not available.
Air Quality Not available.
Flu Activity Not available.
METAR LICA 251850Z 08005KT CAVOK 16/13 Q1017

More Conditions Fewer Conditions

Pressure 30.04 in
Visibility -9999.0 miles
Clouds
Dew Point 56 °F
Humidity 88%
Rainfall 0.00 in
Snow Depth Not available.
UV Not available.
Pollen Not available.
Air Quality Not available.
Flu Activity Not available.
METAR LICA 251850Z 08005KT CAVOK 16/13 Q1017

More Conditions Fewer Conditions

10-Day Weather Forecast

Almanac

Astronomy

Apr. 25, 2015 Rise Set
Actual Time
Civil Twilight
Nautical Twilight
Astronomical Twilight
Moon
Length of Visible Light
Length of Day
Tomorrow will be .
, % of the Moon is Illuminated

Today's Extremes

Country Highs Country Lows

Community

WunderPhotos

Upload Photos

1,816,779 photos uploaded!

WunderBlogs® & News

Nearby

Air Quality

  Air Quality AQ Index Pollutant
Not available.

Snow Depth

Station Depth Elevation

Earthquake Activity

City Distance Mag. Time & Date
Minimum magnitude displayed is 2.5.

Coastal Water Temperatures

Place Temperature

Stations

Nearby Weather Stations

Station Location Temp. Windchill Dew Point Humidity Wind Precip. Elev Updated Type